Time;durP1;ratioP1;P1;durP2;ratioP2;P2;SDS_P1;SDS_P2;PMS_P1;PMS_P2;Temp;Humidity;BMP_temperature;BMP_pressure;BME280_temperature;BME280_humidity;BME280_pressure;Samples;Min_cycle;Max_cycle;Signal;HPM_P1;HPM_P2
2022/07/10 00:00:49;;;;;;;11.10;5.40;;;;;;;24.99;45.94;100515.47;5040272;28;20080;-70
2022/07/10 00:03:16;;;;;;;9.95;4.93;;;;;;;24.89;46.01;100510.38;5039102;28;20132;-70
2022/07/10 00:05:43;;;;;;;7.20;4.75;;;;;;;24.94;46.00;100512.94;5052905;28;20415;-70
2022/07/10 00:08:10;;;;;;;8.50;5.93;;;;;;;24.86;46.03;100511.97;5044489;28;20467;-69
2022/07/10 00:10:36;;;;;;;7.72;5.15;;;;;;;24.89;46.62;100511.22;5046473;28;20531;-70
2022/07/10 00:13:03;;;;;;;6.78;4.38;;;;;;;24.78;46.71;100505.28;5038007;28;20076;-70
2022/07/10 00:15:32;;;;;;;9.45;4.93;;;;;;;24.44;46.82;100449.13;5038226;28;20084;-69
2022/07/10 00:17:59;;;;;;;6.05;4.53;;;;;;;24.78;46.88;100501.59;5032498;28;20555;-70
2022/07/10 00:20:26;;;;;;;8.38;5.10;;;;;;;24.42;46.63;100457.25;5038212;28;20045;-70
2022/07/10 00:22:53;;;;;;;7.75;4.68;;;;;;;24.66;46.82;100490.38;5035074;28;20053;-70
2022/07/10 00:25:27;;;;;;;11.85;4.78;;;;;;;24.74;47.00;100497.84;5036330;28;20047;-71
2022/07/10 00:27:53;;;;;;;7.95;4.03;;;;;;;24.72;47.07;100506.00;5040343;28;20095;-70
2022/07/10 00:30:21;;;;;;;9.00;4.57;;;;;;;24.58;47.55;100495.09;5033937;28;20076;-71
2022/07/10 00:32:48;;;;;;;8.18;6.20;;;;;;;24.54;47.17;100502.75;5043633;28;20524;-72
2022/07/10 00:35:15;;;;;;;9.27;6.38;;;;;;;24.38;47.73;100473.47;5051881;28;20041;-72
2022/07/10 00:37:42;;;;;;;20.83;11.38;;;;;;;24.47;47.31;100494.06;5038257;28;20159;-70
2022/07/10 00:40:09;;;;;;;11.82;8.32;;;;;;;24.47;47.61;100489.16;5045962;28;20076;-69
2022/07/10 00:42:36;;;;;;;9.45;5.57;;;;;;;24.44;47.71;100491.94;5065013;28;20135;-70
2022/07/10 00:45:03;;;;;;;11.13;5.60;;;;;;;24.20;47.75;100451.06;5044540;28;20098;-68
2022/07/10 00:47:30;;;;;;;8.25;4.65;;;;;;;24.39;47.99;100486.53;5040049;28;20574;-68
2022/07/10 00:49:57;;;;;;;6.32;4.68;;;;;;;24.42;47.75;100491.50;5049185;28;20076;-69
2022/07/10 00:52:24;;;;;;;9.15;5.10;;;;;;;24.21;47.66;100446.22;5042209;28;20547;-68
2022/07/10 00:54:51;;;;;;;9.55;6.20;;;;;;;24.31;47.68;100468.44;5039614;28;20132;-70
2022/07/10 00:57:20;;;;;;;9.65;5.22;;;;;;;24.40;47.83;100482.47;5033744;28;20164;-72
2022/07/10 00:59:49;;;;;;;8.63;4.75;;;;;;;24.36;48.25;100473.81;5043275;28;20076;-71
2022/07/10 01:02:16;;;;;;;8.50;3.92;;;;;;;24.33;48.00;100472.53;5045933;28;20083;-71
2022/07/10 01:04:43;;;;;;;7.70;4.55;;;;;;;24.26;48.02;100478.09;5049450;28;20047;-71
2022/07/10 01:07:11;;;;;;;8.05;5.30;;;;;;;24.14;48.04;100469.72;5041701;28;20080;-71
2022/07/10 01:09:37;;;;;;;10.27;5.75;;;;;;;24.11;48.47;100464.75;5042979;28;20055;-71
2022/07/10 01:12:05;;;;;;;7.15;4.32;;;;;;;24.04;48.15;100447.47;5040905;28;20084;-71
2022/07/10 01:14:32;;;;;;;10.30;4.55;;;;;;;24.10;48.30;100465.94;5047956;28;20088;-70
2022/07/10 01:16:59;;;;;;;9.73;4.97;;;;;;;24.09;48.52;100464.28;5039252;28;20139;-71
2022/07/10 01:19:26;;;;;;;12.18;5.03;;;;;;;24.06;48.25;100453.63;5049531;28;20049;-68
2022/07/10 01:21:53;;;;;;;8.75;4.78;;;;;;;23.97;48.76;100447.31;5045517;28;20079;-70
2022/07/10 01:24:20;;;;;;;8.80;5.03;;;;;;;24.12;48.74;100466.38;5042482;28;20053;-71
2022/07/10 01:26:47;;;;;;;8.18;4.55;;;;;;;24.03;48.60;100451.50;5049151;28;20075;-69
2022/07/10 01:29:14;;;;;;;7.03;4.78;;;;;;;24.12;48.57;100455.78;5052897;28;20080;-68
2022/07/10 01:31:41;;;;;;;10.25;5.68;;;;;;;24.06;48.35;100440.19;5046055;28;20077;-67
2022/07/10 01:34:09;;;;;;;7.53;5.05;;;;;;;24.04;48.62;100436.88;5052098;28;20503;-68
2022/07/10 01:36:37;;;;;;;9.43;5.18;;;;;;;24.12;48.45;100446.41;5047518;28;20067;-68
2022/07/10 01:39:06;;;;;;;7.30;4.47;;;;;;;24.04;48.62;100434.03;5040104;28;20060;-70
2022/07/10 01:41:33;;;;;;;6.85;4.22;;;;;;;23.94;48.76;100425.25;5046455;28;20127;-70
2022/07/10 01:44:00;;;;;;;6.35;3.75;;;;;;;23.98;48.67;100449.78;5040581;28;20045;-70
2022/07/10 01:46:27;;;;;;;8.15;4.50;;;;;;;23.91;49.32;100445.97;5035477;28;20049;-69
2022/07/10 01:48:55;;;;;;;5.90;4.65;;;;;;;23.91;48.98;100440.25;5043318;28;20447;-70
2022/07/10 01:51:22;;;;;;;7.47;4.93;;;;;;;23.90;48.81;100433.75;5052287;28;20049;-71
2022/07/10 01:53:49;;;;;;;8.73;4.60;;;;;;;23.91;49.20;100440.25;5043948;28;20538;-70
2022/07/10 01:56:16;;;;;;;8.13;5.15;;;;;;;23.91;49.40;100435.38;5047175;28;20049;-69
2022/07/10 01:58:43;;;;;;;6.28;4.40;;;;;;;23.79;49.11;100418.41;5049595;28;20053;-70
2022/07/10 02:01:11;;;;;;;9.18;4.50;;;;;;;23.55;49.20;100386.06;5042238;28;20088;-69
2022/07/10 02:06:24;;;;;;;7.40;4.13;;;;;;;23.80;49.18;100442.88;5042811;28;20124;-68
2022/07/10 02:08:51;;;;;;;8.35;4.25;;;;;;;23.78;49.66;100434.69;5043564;28;20092;-69
2022/07/10 02:11:18;;;;;;;8.10;4.60;;;;;;;23.75;49.43;100432.56;5038656;28;20476;-71
2022/07/10 02:13:45;;;;;;;8.45;5.28;;;;;;;23.61;49.35;100395.16;5047556;28;20076;-71
2022/07/10 02:16:13;;;;;;;7.85;4.97;;;;;;;23.75;49.60;100424.03;5031893;28;20084;-70
2022/07/10 02:18:39;;;;;;;7.32;4.72;;;;;;;23.76;49.47;100428.53;5041248;28;20094;-71
2022/07/10 02:21:07;;;;;;;10.20;5.38;;;;;;;23.46;49.37;100361.84;5068457;28;20053;-72
2022/07/10 02:23:35;;;;;;;8.95;4.85;;;;;;;23.63;49.86;100385.03;5035485;28;20077;-70
2022/07/10 02:26:02;;;;;;;11.98;5.03;;;;;;;23.70;49.89;100403.56;5040469;28;20140;-70
2022/07/10 02:28:29;;;;;;;7.65;5.05;;;;;;;23.80;49.91;100415.19;5047081;28;20071;-73
2022/07/10 02:30:57;;;;;;;8.48;4.32;;;;;;;23.81;49.48;100407.44;5034938;28;20077;-72
2022/07/10 02:33:24;;;;;;;10.75;5.15;;;;;;;23.61;49.80;100372.34;5042489;28;20040;-73
2022/07/10 02:35:51;;;;;;;10.90;6.22;;;;;;;23.78;49.80;100406.16;5035007;28;20128;-72
2022/07/10 02:38:18;;;;;;;8.20;5.05;;;;;;;23.46;49.60;100350.47;5043347;28;20142;-69
2022/07/10 02:40:44;;;;;;;7.65;4.18;;;;;;;23.74;50.18;100399.56;5034166;28;20096;-69
2022/07/10 02:43:11;;;;;;;9.25;5.35;;;;;;;23.67;49.97;100398.56;5042986;28;20080;-69
2022/07/10 02:45:38;;;;;;;9.20;5.10;;;;;;;23.58;50.05;100384.50;5049307;28;20538;-69
2022/07/10 02:48:12;;;;;;;9.95;4.53;;;;;;;23.64;50.08;100400.94;5042831;28;20056;-69
2022/07/10 02:50:39;;;;;;;8.98;3.97;;;;;;;23.52;50.24;100386.84;5049340;28;20120;-69
2022/07/10 02:53:06;;;;;;;6.65;4.32;;;;;;;23.44;50.29;100382.16;5042494;28;20099;-70
2022/07/10 02:55:33;;;;;;;6.88;4.00;;;;;;;23.56;50.70;100415.44;5038256;28;20049;-68
2022/07/10 02:57:59;;;;;;;8.10;4.47;;;;;;;23.50;50.86;100396.97;5041633;28;20140;-70
2022/07/10 03:00:29;;;;;;;7.85;5.85;;;;;;;23.36;50.95;100375.47;5047263;28;20111;-69
2022/07/10 03:02:58;;;;;;;8.70;6.18;;;;;;;23.40;50.59;100382.06;5047199;28;20053;-69
2022/07/10 03:05:24;;;;;;;9.07;6.25;;;;;;;23.38;50.95;100375.94;5043954;28;20059;-69
2022/07/10 03:07:51;;;;;;;12.52;7.47;;;;;;;23.32;50.61;100377.44;5045791;28;20135;-70
2022/07/10 03:10:19;;;;;;;11.27;6.32;;;;;;;23.40;51.11;100390.63;5046743;28;20140;-69
2022/07/10 03:12:46;;;;;;;9.02;6.50;;;;;;;23.41;50.79;100377.19;5050701;28;20136;-70
2022/07/10 03:15:14;;;;;;;7.32;5.53;;;;;;;23.46;51.24;100390.34;5039130;28;20136;-70
2022/07/10 03:17:41;;;;;;;8.57;5.60;;;;;;;23.23;51.26;100356.03;5036403;28;20135;-70
2022/07/10 03:20:08;;;;;;;10.43;6.03;;;;;;;23.39;50.99;100383.28;5037562;28;20065;-69
2022/07/10 03:22:36;;;;;;;7.82;6.10;;;;;;;23.32;51.11;100388.81;5049663;28;20087;-69
2022/07/10 03:25:04;;;;;;;10.02;6.78;;;;;;;23.32;51.44;100396.53;5042810;28;20140;-71
2022/07/10 03:27:31;;;;;;;9.45;7.78;;;;;;;23.15;51.40;100372.13;5040076;28;20135;-70
2022/07/10 03:29:58;;;;;;;6.97;5.55;;;;;;;23.26;51.56;100398.84;5038535;28;20485;-68
2022/07/10 03:32:25;;;;;;;9.43;6.18;;;;;;;23.21;51.36;100398.28;5043265;28;20095;-68
2022/07/10 03:34:51;;;;;;;7.43;6.55;;;;;;;23.23;51.94;100402.44;5047028;28;20132;-68
2022/07/10 03:37:18;;;;;;;8.55;6.18;;;;;;;23.20;51.53;100397.47;5051877;28;20140;-68
2022/07/10 03:39:45;;;;;;;7.75;5.75;;;;;;;23.14;52.04;100408.31;5046884;28;20122;-70
2022/07/10 03:42:12;;;;;;;8.18;6.43;;;;;;;23.06;52.22;100402.81;5037813;28;20148;-69
2022/07/10 03:44:39;;;;;;;7.95;6.00;;;;;;;22.96;52.25;100392.00;5041228;28;20133;-69
2022/07/10 03:47:06;;;;;;;7.35;5.82;;;;;;;22.97;52.45;100405.03;5047600;28;20079;-69
2022/07/10 03:49:33;;;;;;;9.18;6.28;;;;;;;22.59;52.59;100352.38;5043061;28;20077;-70
2022/07/10 03:52:01;;;;;;;8.85;6.25;;;;;;;22.82;52.88;100404.63;5039046;28;20132;-70
2022/07/10 03:54:31;;;;;;;9.00;5.97;;;;;;;22.89;52.80;100416.22;5037047;28;20165;-70
2022/07/10 03:59:44;;;;;;;11.35;6.45;;;;;;;22.73;52.83;100411.69;5040187;28;20136;-69
2022/07/10 04:02:11;;;;;;;10.50;6.40;;;;;;;22.75;52.99;100410.16;5044065;28;20053;-70
2022/07/10 04:04:38;;;;;;;10.77;9.68;;;;;;;22.77;52.91;100402.09;5043858;28;20053;-70
2022/07/10 04:07:05;;;;;;;11.05;9.98;;;;;;;22.67;52.87;100405.47;5041745;28;20060;-69
2022/07/10 04:09:32;;;;;;;11.32;10.25;;;;;;;22.66;53.33;100406.66;5045562;28;20045;-70
2022/07/10 04:11:59;;;;;;;11.45;10.20;;;;;;;22.70;53.56;100411.25;5037822;28;20061;-70
2022/07/10 04:14:26;;;;;;;10.80;9.75;;;;;;;22.68;53.55;100410.78;5044042;28;20140;-69
2022/07/10 04:16:53;;;;;;;11.90;9.45;;;;;;;22.59;53.63;100390.19;5042220;28;20472;-69
2022/07/10 04:19:21;;;;;;;10.07;9.00;;;;;;;22.48;53.74;100377.72;5049504;28;20076;-69
2022/07/10 04:21:49;;;;;;;11.20;9.45;;;;;;;22.59;53.94;100395.91;5037385;28;20052;-69
2022/07/10 04:24:15;;;;;;;11.27;9.25;;;;;;;22.62;53.62;100400.84;5044617;28;20127;-69
2022/07/10 04:26:43;;;;;;;13.57;10.00;;;;;;;22.47;53.92;100368.34;5035947;28;20412;-68
2022/07/10 04:29:10;;;;;;;11.23;7.38;;;;;;;22.56;53.95;100384.41;5042050;28;20099;-69
2022/07/10 04:31:37;;;;;;;9.57;8.68;;;;;;;22.48;53.82;100370.00;5045942;28;20128;-69
2022/07/10 04:34:04;;;;;;;12.20;8.90;;;;;;;22.51;54.17;100385.53;5042330;28;20611;-68
2022/07/10 04:36:31;;;;;;;11.05;9.18;;;;;;;22.51;54.30;100399.75;5041183;28;20148;-69
2022/07/10 04:38:58;;;;;;;15.70;9.73;;;;;;;22.17;54.46;100355.75;5041033;28;20141;-72
2022/07/10 04:41:25;;;;;;;11.25;9.68;;;;;;;22.42;55.01;100404.78;5035570;28;20088;-70
2022/07/10 04:43:52;;;;;;;12.00;10.73;;;;;;;22.41;54.92;100403.97;5066318;28;20124;-70
2022/07/10 04:46:19;;;;;;;14.00;11.57;;;;;;;22.42;54.79;100402.75;5046868;28;20076;-70
2022/07/10 04:48:46;;;;;;;16.48;11.85;;;;;;;22.34;55.36;100383.03;5046012;28;20110;-71
2022/07/10 04:51:13;;;;;;;21.42;11.20;;;;;;;22.22;55.39;100364.84;5046266;28;20045;-69
2022/07/10 04:53:40;;;;;;;18.20;11.38;;;;;;;22.33;55.41;100379.34;5036472;28;20099;-70
2022/07/10 04:56:07;;;;;;;20.75;13.05;;;;;;;22.30;55.69;100388.63;5047235;28;20052;-70
2022/07/10 04:58:34;;;;;;;19.05;12.50;;;;;;;22.41;55.81;100412.50;5046286;28;20120;-69
2022/07/10 05:01:01;;;;;;;18.10;11.48;;;;;;;22.37;56.24;100403.03;5041198;28;20456;-69
2022/07/10 05:03:28;;;;;;;21.55;13.80;;;;;;;22.29;56.24;100384.13;5049939;28;20072;-69
2022/07/10 05:05:55;;;;;;;18.33;13.02;;;;;;;22.21;56.56;100368.03;5050965;28;20083;-69
2022/07/10 05:08:22;;;;;;;18.25;13.38;;;;;;;22.28;56.53;100396.69;5047145;28;20124;-68
2022/07/10 05:10:51;;;;;;;23.08;14.95;;;;;;;22.20;56.82;100401.34;5033351;28;20127;-68
2022/07/10 05:13:18;;;;;;;19.90;13.48;;;;;;;22.16;56.97;100397.56;5044754;28;20095;-67
2022/07/10 05:15:48;;;;;;;20.40;13.27;;;;;;;22.21;57.03;100403.00;5044716;28;20143;-68
2022/07/10 05:18:14;;;;;;;20.00;13.88;;;;;;;22.13;57.23;100411.66;5041705;28;20495;-68
2022/07/10 05:20:43;;;;;;;20.15;13.45;;;;;;;22.16;56.97;100397.56;5041299;28;20124;-68
2022/07/10 05:23:11;;;;;;;21.15;14.93;;;;;;;22.19;57.52;100410.25;5034955;28;20049;-68
2022/07/10 05:25:38;;;;;;;23.05;15.57;;;;;;;22.08;57.15;100403.38;5041128;28;20064;-71
2022/07/10 05:28:05;;;;;;;22.20;15.98;;;;;;;21.87;57.43;100364.59;5041917;28;20044;-69
2022/07/10 05:30:32;;;;;;;30.13;17.75;;;;;;;22.23;57.37;100428.25;5046411;28;20131;-69
2022/07/10 05:32:59;;;;;;;25.33;17.27;;;;;;;22.11;57.93;100402.66;5041998;28;20128;-69
2022/07/10 05:35:27;;;;;;;27.13;19.25;;;;;;;22.23;57.73;100417.69;5039947;28;20132;-68
2022/07/10 05:37:53;;;;;;;23.67;16.45;;;;;;;21.98;57.90;100381.97;5036491;28;20127;-68
2022/07/10 05:40:20;;;;;;;25.80;16.42;;;;;;;21.98;57.97;100368.59;5042939;28;20088;-70
2022/07/10 05:42:47;;;;;;;31.20;20.73;;;;;;;22.32;58.12;100408.16;5040475;28;20081;-68
2022/07/10 05:45:14;;;;;;;29.23;18.73;;;;;;;22.38;58.05;100421.75;5039288;28;20168;-68
2022/07/10 05:47:41;;;;;;;26.83;19.52;;;;;;;22.35;58.38;100391.19;5050860;28;20526;-75
2022/07/10 05:50:08;;;;;;;30.20;20.25;;;;;;;22.44;58.45;100394.69;5050804;28;20083;-72
2022/07/10 05:52:35;;;;;;;26.10;18.17;;;;;;;22.57;58.25;100403.16;5047905;28;20049;-70
2022/07/10 05:55:03;;;;;;;26.48;19.60;;;;;;;22.72;58.61;100402.34;5033088;28;20065;-70
2022/07/10 05:57:34;;;;;;;26.30;17.25;;;;;;;22.74;58.25;100382.06;5035488;28;20132;-70
2022/07/10 06:00:03;;;;;;;23.55;17.50;;;;;;;22.78;58.47;100374.44;5033903;28;20136;-70
2022/07/10 06:02:31;;;;;;;25.30;17.52;;;;;;;23.01;58.03;100411.63;5045497;28;20530;-70
2022/07/10 06:04:58;;;;;;;24.02;16.98;;;;;;;23.14;57.92;100411.16;5044254;28;20612;-69
2022/07/10 06:07:26;;;;;;;23.38;16.40;;;;;;;23.29;57.84;100406.66;5033989;28;20156;-70
2022/07/10 06:09:54;;;;;;;23.30;16.65;;;;;;;23.51;57.73;100401.44;5041199;28;20095;-70
2022/07/10 06:12:21;;;;;;;20.90;16.67;;;;;;;23.79;57.31;100402.09;5035116;28;20568;-69
2022/07/10 06:14:48;;;;;;;24.55;17.35;;;;;;;23.84;56.85;100389.59;5039366;28;20056;-70
2022/07/10 06:17:15;;;;;;;22.85;15.85;;;;;;;24.10;56.66;100400.31;5034263;28;20080;-70
2022/07/10 06:19:42;;;;;;;24.23;20.88;;;;;;;24.31;56.02;100406.47;5037087;28;20095;-69
2022/07/10 06:24:54;;;;;;;21.80;16.98;;;;;;;24.51;55.15;100392.16;5046143;28;20444;-70
2022/07/10 06:27:21;;;;;;;21.95;16.90;;;;;;;24.65;55.61;100383.91;5035319;28;20140;-70
2022/07/10 06:29:48;;;;;;;22.58;16.55;;;;;;;25.03;54.73;100396.38;5036292;28;20152;-70
2022/07/10 06:32:15;;;;;;;20.88;15.25;;;;;;;25.14;54.51;100408.84;5049719;28;20059;-70
2022/07/10 06:34:42;;;;;;;18.98;15.07;;;;;;;25.26;54.36;100400.06;5049161;28;20088;-70
2022/07/10 06:37:09;;;;;;;21.00;14.25;;;;;;;25.65;53.76;100407.56;5053954;28;20084;-70
2022/07/10 06:39:36;;;;;;;20.42;15.70;;;;;;;25.95;53.38;100414.16;5041984;28;20083;-70
2022/07/10 06:42:04;;;;;;;19.65;16.42;;;;;;;25.84;52.71;100358.00;5043092;28;20140;-70
2022/07/10 06:44:31;;;;;;;19.95;15.38;;;;;;;26.43;52.30;100417.19;5043543;28;20087;-70
2022/07/10 06:49:46;;;;;;;16.48;14.73;;;;;;;26.92;51.29;100420.97;5039025;28;20134;-70
2022/07/10 06:52:13;;;;;;;18.67;15.30;;;;;;;27.20;50.22;100426.16;5049939;28;20087;-70
2022/07/10 06:54:41;;;;;;;17.85;14.90;;;;;;;27.44;49.84;100413.22;5044232;28;20049;-70
2022/07/10 06:57:09;;;;;;;19.63;15.30;;;;;;;27.76;49.40;100424.09;5042494;28;20136;-70
2022/07/10 06:59:36;;;;;;;20.02;16.25;;;;;;;27.87;49.23;100430.75;5046730;28;20267;-70
2022/07/10 07:02:03;;;;;;;17.58;15.40;;;;;;;28.13;48.62;100415.25;5046569;28;20452;-70
2022/07/10 07:04:30;;;;;;;16.25;14.65;;;;;;;28.49;48.00;100424.88;5050791;28;20053;-70
2022/07/10 07:06:57;;;;;;;15.90;14.18;;;;;;;28.67;47.28;100412.59;5039618;28;20056;-73
2022/07/10 07:09:23;;;;;;;19.02;13.82;;;;;;;28.90;46.91;100424.53;5042138;28;20475;-71
2022/07/10 07:11:50;;;;;;;15.20;13.68;;;;;;;29.04;46.88;100421.69;5036132;28;20048;-72
2022/07/10 07:14:17;;;;;;;18.27;15.75;;;;;;;29.09;46.42;100411.00;5036682;28;20081;-71
2022/07/10 07:16:57;;;;;;;19.20;17.23;;;;;;;29.17;46.29;100404.84;5040900;28;20137;-71
2022/07/10 07:19:31;;;;;;;16.95;14.48;;;;;;;29.32;45.90;100402.78;5045047;28;20143;-71
2022/07/10 07:24:44;;;;;;;21.05;17.08;;;;;;;29.77;45.14;100408.06;5036113;28;20646;-71
2022/07/10 07:27:12;;;;;;;21.88;15.50;;;;;;;29.86;45.04;100400.63;5041161;28;20131;-71
2022/07/10 07:29:39;;;;;;;15.25;13.65;;;;;;;29.95;44.78;100386.63;5041186;28;20087;-71
2022/07/10 07:32:06;;;;;;;15.85;12.90;;;;;;;30.13;44.02;100388.59;5044502;28;20163;-72
2022/07/10 07:34:32;;;;;;;17.30;12.75;;;;;;;30.39;44.02;100398.78;5035813;28;20156;-69
2022/07/10 07:36:59;;;;;;;17.48;14.90;;;;;;;30.47;43.92;100391.75;5044261;28;20059;-70
2022/07/10 07:39:26;;;;;;;14.98;13.40;;;;;;;30.75;43.03;100402.25;5038943;28;20124;-70
2022/07/10 07:41:53;;;;;;;16.45;14.18;;;;;;;30.93;42.85;100411.63;5036735;28;20559;-70
2022/07/10 07:44:20;;;;;;;17.05;13.95;;;;;;;30.87;42.64;100396.03;5037646;28;20167;-72
2022/07/10 07:46:52;;;;;;;18.38;13.50;;;;;;;31.13;42.53;100411.88;5036175;28;20416;-71
2022/07/10 07:49:19;;;;;;;15.98;14.30;;;;;;;31.24;42.29;100390.75;5052086;28;20522;-71
2022/07/10 07:51:48;;;;;;;14.95;12.70;;;;;;;31.21;41.73;100363.59;5047094;28;20522;-71
2022/07/10 07:54:16;;;;;;;16.75;15.00;;;;;;;31.41;41.38;100394.75;5037064;28;20136;-70
2022/07/10 07:56:43;;;;;;;19.83;14.25;;;;;;;31.49;41.23;100379.84;5039727;28;20089;-69
2022/07/10 07:59:10;;;;;;;17.48;13.20;;;;;;;31.79;40.60;100399.28;5044048;28;20057;-71
2022/07/10 08:01:37;;;;;;;17.40;15.00;;;;;;;31.98;40.43;100406.53;5032685;28;20073;-71
2022/07/10 08:04:04;;;;;;;16.88;14.25;;;;;;;32.10;40.41;100408.00;5036762;28;20099;-72
2022/07/10 08:06:35;;;;;;;15.43;13.32;;;;;;;32.25;40.12;100406.59;5041672;28;20052;-71
2022/07/10 08:09:02;;;;;;;14.35;13.00;;;;;;;32.39;39.82;100416.31;5042211;28;20092;-70
2022/07/10 08:11:29;;;;;;;16.08;14.30;;;;;;;32.51;39.46;100409.97;5033741;28;20128;-71
2022/07/10 08:13:55;;;;;;;14.80;13.30;;;;;;;32.55;39.40;100399.19;5064637;28;20128;-71
2022/07/10 08:16:22;;;;;;;16.70;13.95;;;;;;;32.63;39.10;100406.50;5039627;28;20100;-72
2022/07/10 08:18:50;;;;;;;15.75;13.88;;;;;;;32.55;38.97;100381.84;5033019;28;20058;-71
2022/07/10 08:21:17;;;;;;;14.25;12.85;;;;;;;32.86;38.71;100407.81;5043218;28;20049;-71
2022/07/10 08:23:44;;;;;;;14.07;12.52;;;;;;;32.96;38.36;100406.88;5044519;28;20056;-70
2022/07/10 08:26:11;;;;;;;16.35;13.00;;;;;;;33.14;38.04;100415.25;5046616;28;20128;-71
2022/07/10 08:28:38;;;;;;;13.20;12.00;;;;;;;33.19;37.99;100412.66;5033728;28;20073;-72
2022/07/10 08:31:05;;;;;;;18.15;13.60;;;;;;;33.24;37.89;100420.03;5032774;28;20508;-72
2022/07/10 08:33:39;;;;;;;16.30;12.88;;;;;;;33.32;37.65;100412.03;5035527;28;20080;-70
2022/07/10 08:36:06;;;;;;;16.92;13.48;;;;;;;33.35;37.25;100393.78;5031569;28;20575;-72
2022/07/10 08:38:56;;;;;;;17.77;12.85;;;;;;;33.43;36.74;100406.84;5036962;28;20045;-71
2022/07/10 08:41:26;;;;;;;16.67;15.13;;;;;;;33.34;36.79;100377.69;5034889;28;20057;-71
2022/07/10 08:43:53;;;;;;;15.82;14.23;;;;;;;33.34;36.83;100404.56;5034802;28;20049;-72
2022/07/10 08:46:20;;;;;;;16.30;14.35;;;;;;;33.47;36.58;100399.75;5037621;28;20143;-71
2022/07/10 08:48:49;;;;;;;14.95;13.35;;;;;;;33.68;35.95;100401.47;5036817;28;20044;-72
2022/07/10 08:51:37;;;;;;;17.60;15.75;;;;;;;33.83;35.52;100389.59;5033871;28;20085;-72
2022/07/10 08:54:06;;;;;;;21.92;17.05;;;;;;;33.92;35.20;100393.53;5038055;28;20103;-72
2022/07/10 08:56:34;;;;;;;23.02;17.58;;;;;;;33.97;35.07;100384.31;5035616;28;20057;-71
2022/07/10 08:59:06;;;;;;;32.15;23.48;;;;;;;34.01;34.78;100378.47;5035014;28;20104;-71
2022/07/10 09:01:33;;;;;;;35.97;24.27;;;;;;;34.21;34.81;100395.84;5048691;28;20081;-70
2022/07/10 09:04:00;;;;;;;21.00;18.80;;;;;;;34.24;34.63;100382.53;5034555;28;20503;-72
2022/07/10 09:06:28;;;;;;;26.65;17.52;;;;;;;34.27;34.88;100378.75;5039392;28;20128;-72
2022/07/10 09:09:04;;;;;;;20.17;18.02;;;;;;;33.69;34.84;100287.25;5038476;28;20480;-72
2022/07/10 09:11:33;;;;;;;23.77;19.40;;;;;;;34.38;34.80;100385.13;5034733;28;20112;-72
2022/07/10 09:14:07;;;;;;;22.15;19.77;;;;;;;34.17;34.99;100340.84;5032458;28;20085;-73
2022/07/10 09:16:36;;;;;;;23.48;19.65;;;;;;;34.52;34.76;100381.09;5028979;28;20796;-72
2022/07/10 09:19:27;;;;;;;22.77;18.48;;;;;;;34.57;34.74;100378.50;5035936;28;20048;-72
2022/07/10 09:22:16;;;;;;;36.30;23.85;;;;;;;34.60;34.41;100380.50;5041896;28;20132;-72
2022/07/10 09:24:45;;;;;;;23.63;19.17;;;;;;;34.61;34.22;100367.63;5043611;28;20080;-73
2022/07/10 09:27:14;;;;;;;23.25;18.95;;;;;;;34.83;34.12;100381.59;5037182;28;20048;-72
2022/07/10 09:29:54;;;;;;;22.55;17.38;;;;;;;34.72;33.88;100346.25;5042965;28;20072;-73
2022/07/10 09:32:21;;;;;;;22.75;17.23;;;;;;;34.89;34.04;100376.91;5038083;28;20068;-72
2022/07/10 09:37:42;;;;;;;18.70;16.77;;;;;;;34.99;33.33;100357.59;5037247;28;20128;-72
2022/07/10 09:40:09;;;;;;;16.50;14.75;;;;;;;34.93;33.69;100357.31;5030560;28;20072;-71
2022/07/10 09:42:42;;;;;;;21.20;13.63;;;;;;;35.28;33.79;100378.81;5034480;28;20458;-72
2022/07/10 09:45:09;;;;;;;18.95;17.13;;;;;;;35.28;33.80;100389.59;5037921;28;20576;-71
2022/07/10 09:47:37;;;;;;;20.00;17.20;;;;;;;35.34;33.83;100388.59;5033314;28;20050;-72
2022/07/10 09:50:22;;;;;;;18.08;15.20;;;;;;;35.50;33.60;100379.06;5037486;28;20128;-72
2022/07/10 09:53:04;;;;;;;20.48;15.57;;;;;;;35.51;33.50;100368.25;5034673;28;20069;-72
2022/07/10 09:55:34;;;;;;;17.23;14.27;;;;;;;35.66;33.13;100371.59;5041321;28;20060;-71
2022/07/10 09:58:10;;;;;;;16.88;15.25;;;;;;;35.68;33.53;100366.16;5042822;28;20103;-72
2022/07/10 10:00:41;;;;;;;16.83;14.73;;;;;;;35.59;33.15;100355.19;5043088;28;20419;-72
2022/07/10 10:03:11;;;;;;;16.02;14.52;;;;;;;35.75;33.46;100377.56;5038057;28;20060;-72
2022/07/10 10:05:53;;;;;;;17.38;14.32;;;;;;;35.80;32.92;100359.59;5046498;28;20041;-72
2022/07/10 10:08:41;;;;;;;15.57;13.93;;;;;;;35.97;33.01;100366.94;5038743;28;20072;-72
2022/07/10 10:11:14;;;;;;;13.95;12.55;;;;;;;35.94;32.88;100353.34;5038812;28;20085;-72
2022/07/10 10:13:42;;;;;;;12.77;11.57;;;;;;;35.75;33.04;100360.94;5039088;28;20539;-72
2022/07/10 10:16:10;;;;;;;12.00;10.98;;;;;;;35.83;32.81;100368.19;5039872;28;20734;-73
2022/07/10 10:20:36;;;;;;;14.52;13.02;;;;;;;35.82;33.05;100365.72;5047650;28;20577;-71
2022/07/10 10:21:26;;;;;;;11.32;10.25;;;;;;;35.59;32.96;100364.72;5039164;28;20149;-72
2022/07/10 10:23:55;;;;;;;11.75;10.75;;;;;;;35.59;33.08;100360.97;5043968;28;20084;-71
2022/07/10 10:26:26;;;;;;;11.65;9.98;;;;;;;35.40;33.10;100339.50;5041030;28;20470;-69
2022/07/10 10:28:56;;;;;;;11.20;10.30;;;;;;;35.29;33.09;100351.41;5042645;28;20072;-71
2022/07/10 10:31:26;;;;;;;10.35;9.30;;;;;;;35.34;32.88;100335.53;5030423;28;20140;-71
2022/07/10 10:33:59;;;;;;;10.88;9.77;;;;;;;35.70;32.99;100340.38;5045523;28;20076;-71
2022/07/10 10:36:46;;;;;;;11.32;10.25;;;;;;;35.84;32.73;100351.56;5042593;28;20516;-72
2022/07/10 10:39:13;;;;;;;10.50;9.60;;;;;;;35.79;32.64;100360.84;5050790;28;20068;-72
2022/07/10 10:41:44;;;;;;;10.85;9.88;;;;;;;35.92;32.46;100358.78;5038216;28;20565;-72
2022/07/10 10:44:17;;;;;;;11.70;10.70;;;;;;;35.81;32.42;100359.09;5046513;28;20714;-71
2022/07/10 10:46:50;;;;;;;12.55;11.35;;;;;;;35.73;32.33;100351.88;5041367;28;20151;-70
2022/07/10 10:49:20;;;;;;;10.63;9.65;;;;;;;35.65;32.51;100347.53;5039116;28;20049;-71
2022/07/10 10:52:00;;;;;;;11.98;10.95;;;;;;;35.67;32.24;100358.72;5034678;28;20084;-70
2022/07/10 10:54:31;;;;;;;9.70;9.00;;;;;;;35.78;32.63;100365.03;5041085;28;20127;-72
2022/07/10 10:57:14;;;;;;;9.57;8.77;;;;;;;35.91;32.77;100362.97;5042984;28;20145;-72
2022/07/10 10:59:52;;;;;;;10.43;9.43;;;;;;;36.02;32.29;100354.78;5041408;28;20049;-72
2022/07/10 11:02:23;;;;;;;10.68;9.80;;;;;;;36.23;31.70;100356.22;5043206;28;20140;-72
2022/07/10 11:04:50;;;;;;;9.15;8.35;;;;;;;36.18;32.02;100358.91;5040765;28;20140;-72
2022/07/10 11:07:52;;;;;;;11.30;10.40;;;;;;;36.15;32.39;100374.34;5041533;28;20445;-70
2022/07/10 11:10:35;;;;;;;11.95;10.15;;;;;;;36.03;32.59;100376.75;5038610;28;20140;-70
2022/07/10 11:13:07;;;;;;;12.90;11.85;;;;;;;36.04;32.06;100363.88;5036279;28;20088;-71
2022/07/10 11:15:38;;;;;;;10.63;9.77;;;;;;;35.97;32.31;100343.69;5036916;28;20049;-71
2022/07/10 11:18:28;;;;;;;10.48;9.57;;;;;;;36.23;31.55;100367.84;5042129;28;20083;-70
2022/07/10 11:20:55;;;;;;;10.95;9.95;;;;;;;36.08;31.19;100325.97;5039347;28;20496;-70
2022/07/10 11:23:31;;;;;;;5.63;4.35;;;;;;;36.30;31.15;100385.06;5042120;28;20705;-71
2022/07/10 11:26:10;;;;;;;10.30;4.47;;;;;;;36.21;31.90;100369.59;5039738;28;20049;-70
2022/07/10 11:28:55;;;;;;;;;;;;;;;36.06;32.28;100367.09;5046634;28;20147;-71
2022/07/10 11:31:24;;;;;;;7.85;5.20;;;;;;;36.53;31.12;100351.97;5036930;28;20016;-71
2022/07/10 11:33:53;;;;;;;7.18;5.63;;;;;;;36.68;30.92;100331.94;5033666;28;20134;-71
2022/07/10 11:36:25;;;;;;;10.60;6.80;;;;;;;37.00;30.33;100368.75;5037468;28;20123;-71
2022/07/10 11:39:04;;;;;;;12.27;7.38;;;;;;;36.74;30.32;100335.91;5047979;28;20095;-71
2022/07/10 11:41:31;;;;;;;;;;;;;;;36.08;31.61;100351.31;5039971;28;20048;-70